Login to view Products
 
Tuesday, June 15, 2021 (16:38 UTC) 16
Dubai International Airport
Last Updated: 15-Jun-2021 (16:37Z)
Wind Dir/Speed: W at 07 kt
Temperature: 35.0°C
Rel. Humidity: 42 %
Pressure: 996.3 hPa
Visibility: 10000 m
  • METAR OMDB 151630Z 28007KT CAVOK 35/19 Q0996 NOSIG
  • TAF OMDB 151100Z 1512/1618 28012KT 5000 DU NSC BECMG 1515/1517 18005KT 8000 NSW BECMG 1606/1608 30010KT=

2